createdAt,value
2022-08-18T00:01:16.000Z,62.75
2022-08-18T00:03:56.860Z,62.50
2022-08-18T00:06:30.325Z,64.00
2022-08-18T00:09:03.582Z,56.25
2022-08-18T00:11:40.484Z,61.25
2022-08-18T00:14:22.907Z,60.50
2022-08-18T00:16:54.114Z,62.00
2022-08-18T00:19:43.605Z,62.25
2022-08-18T00:22:15.657Z,59.50
2022-08-18T00:24:50.534Z,61.25
2022-08-18T00:27:28.139Z,60.75
2022-08-18T00:30:02.818Z,64.00
2022-08-18T00:32:35.004Z,62.75
2022-08-18T00:35:11.902Z,59.75
2022-08-18T00:37:42.107Z,63.25
2022-08-18T00:40:13.207Z,63.50
2022-08-18T00:42:45.844Z,59.50
2022-08-18T00:45:17.085Z,62.75
2022-08-18T00:47:47.142Z,56.75
2022-08-18T00:50:22.613Z,62.75
2022-08-18T00:52:56.033Z,61.00
2022-08-18T00:55:26.403Z,63.00
2022-08-18T00:57:57.873Z,55.75
2022-08-18T01:00:27.240Z,57.25
2022-08-18T01:02:59.008Z,62.25
2022-08-18T01:05:35.328Z,64.00
2022-08-18T01:08:05.214Z,59.50
2022-08-18T01:10:36.439Z,60.25
2022-08-18T01:13:06.093Z,61.50
2022-08-18T01:15:36.936Z,60.75
2022-08-18T01:18:26.794Z,60.00
2022-08-18T01:21:21.927Z,61.25
2022-08-18T01:23:54.048Z,60.25
2022-08-18T01:26:24.740Z,60.50
2022-08-18T01:28:55.319Z,58.50
2022-08-18T01:31:34.578Z,60.25
2022-08-18T01:34:04.733Z,61.50
2022-08-18T01:36:38.687Z,54.00
2022-08-18T01:39:10.049Z,61.50
2022-08-18T01:41:40.677Z,61.00
2022-08-18T01:44:13.081Z,58.25
2022-08-18T01:46:43.123Z,61.00
2022-08-18T01:49:12.561Z,62.75
2022-08-18T01:51:43.941Z,61.50
2022-08-18T01:54:16.230Z,59.50
2022-08-18T01:56:45.932Z,60.00
2022-08-18T01:59:21.599Z,62.25
2022-08-18T02:01:56.837Z,63.00
2022-08-18T02:04:37.333Z,63.25
2022-08-18T02:07:09.921Z,59.25
2022-08-18T02:09:40.695Z,58.00
2022-08-18T02:12:10.829Z,63.00
2022-08-18T02:14:40.854Z,66.50
2022-08-18T02:17:11.196Z,62.50
2022-08-18T02:19:45.942Z,66.25
2022-08-18T02:22:18.015Z,67.25
2022-08-18T02:24:47.864Z,66.75
2022-08-18T02:27:18.493Z,63.75
2022-08-18T02:29:47.822Z,63.00
2022-08-18T02:32:17.146Z,64.25
2022-08-18T02:34:46.481Z,65.00
2022-08-18T02:37:15.889Z,63.25
2022-08-18T02:39:45.869Z,70.00
2022-08-18T02:42:17.550Z,69.25
2022-08-18T02:44:46.937Z,66.25
2022-08-18T02:47:16.248Z,66.00
2022-08-18T02:49:45.583Z,70.25
2022-08-18T02:52:14.954Z,69.75
2022-08-18T02:54:44.434Z,73.00
2022-08-18T02:57:14.490Z,71.25
2022-08-18T02:59:47.417Z,71.50
2022-08-18T03:02:18.242Z,69.75
2022-08-18T03:04:48.246Z,71.00
2022-08-18T03:07:17.767Z,69.50
2022-08-18T03:09:47.125Z,69.75
2022-08-18T03:12:16.952Z,69.25
2022-08-18T03:14:48.040Z,68.00
2022-08-18T03:17:17.370Z,68.50
2022-08-18T03:19:47.863Z,66.00
2022-08-18T03:22:28.132Z,68.25
2022-08-18T03:24:59.361Z,65.50
2022-08-18T03:27:28.910Z,71.00
2022-08-18T03:29:58.732Z,64.25
2022-08-18T03:32:28.462Z,66.75
2022-08-18T03:34:57.968Z,71.00
2022-08-18T03:37:27.360Z,66.00
2022-08-18T03:39:57.208Z,63.25
2022-08-18T03:42:26.937Z,67.25
2022-08-18T03:44:56.570Z,69.00
2022-08-18T03:47:35.643Z,65.00
2022-08-18T03:50:35.925Z,63.00
2022-08-18T03:53:06.714Z,64.75
2022-08-18T03:56:01.552Z,63.75
2022-08-18T04:01:39.104Z,64.25
2022-08-18T04:04:20.652Z,68.75
2022-08-18T04:07:44.527Z,64.50
2022-08-18T04:10:25.507Z,64.75
2022-08-18T04:12:55.108Z,66.00
2022-08-18T04:15:24.694Z,65.00
2022-08-18T04:17:56.237Z,63.75
2022-08-18T04:20:34.544Z,65.75
2022-08-18T04:23:04.500Z,64.25
2022-08-18T04:25:34.355Z,68.50
2022-08-18T04:28:04.731Z,65.75
2022-08-18T04:30:34.268Z,62.75
2022-08-18T04:33:03.975Z,62.25
2022-08-18T04:35:33.534Z,66.00
2022-08-18T04:38:03.045Z,65.25
2022-08-18T04:40:35.170Z,62.50
2022-08-18T04:43:04.925Z,63.75
2022-08-18T04:45:34.271Z,61.00
2022-08-18T04:48:03.592Z,63.50
2022-08-18T04:50:33.524Z,61.00
2022-08-18T04:53:24.268Z,62.50
2022-08-18T04:55:56.113Z,60.75
2022-08-18T04:58:26.148Z,61.75
2022-08-18T05:01:02.079Z,64.25
2022-08-18T05:03:31.743Z,63.00
2022-08-18T05:06:01.578Z,62.25
2022-08-18T05:08:31.626Z,61.00
2022-08-18T05:11:04.112Z,62.00
2022-08-18T05:13:34.398Z,63.50
2022-08-18T05:16:11.629Z,58.25
2022-08-18T05:18:43.797Z,60.50
2022-08-18T05:21:17.172Z,61.00
2022-08-18T05:23:49.873Z,62.75
2022-08-18T05:26:20.769Z,62.75
2022-08-18T05:29:00.155Z,61.50
2022-08-18T05:31:35.693Z,61.00
2022-08-18T05:34:08.137Z,62.00
2022-08-18T05:36:55.223Z,60.00
2022-08-18T05:39:31.255Z,61.00
2022-08-18T05:42:01.253Z,61.50
2022-08-18T05:44:32.012Z,59.75
2022-08-18T05:47:06.114Z,56.75
2022-08-18T05:49:37.321Z,60.00
2022-08-18T05:52:14.891Z,57.25
2022-08-18T05:55:05.705Z,61.00
2022-08-18T05:57:40.407Z,59.00
2022-08-18T06:00:12.520Z,62.00
2022-08-18T06:02:53.460Z,61.25
2022-08-18T06:05:26.840Z,61.00
2022-08-18T06:08:07.756Z,61.25
2022-08-18T06:10:38.591Z,61.25
2022-08-18T06:13:10.971Z,62.25
2022-08-18T06:15:46.195Z,60.00
2022-08-18T06:18:39.113Z,62.75
2022-08-18T06:21:11.520Z,65.25
2022-08-18T06:23:44.382Z,61.75
2022-08-18T06:26:17.878Z,64.00
2022-08-18T06:29:12.162Z,64.00
2022-08-18T06:31:55.362Z,65.50
2022-08-18T06:34:35.741Z,65.00
2022-08-18T06:37:20.018Z,65.75
2022-08-18T06:39:52.785Z,61.50
2022-08-18T06:42:27.221Z,61.00
2022-08-18T06:45:00.556Z,61.75
2022-08-18T06:47:48.314Z,62.00
2022-08-18T06:50:43.594Z,64.25
2022-08-18T06:53:27.381Z,62.00
2022-08-18T06:55:58.006Z,65.25
2022-08-18T06:58:31.294Z,65.00
2022-08-18T07:01:01.402Z,66.50
2022-08-18T07:03:36.637Z,68.75
2022-08-18T07:06:07.668Z,61.50
2022-08-18T07:08:39.200Z,61.50
2022-08-18T07:11:17.833Z,65.50
2022-08-18T07:13:58.647Z,61.25
2022-08-18T07:19:33.004Z,63.50
2022-08-18T07:22:09.094Z,64.00
2022-08-18T07:24:47.830Z,65.00
2022-08-18T07:27:22.697Z,64.25
2022-08-18T07:30:15.202Z,62.25
2022-08-18T07:32:48.414Z,64.75
2022-08-18T07:35:25.485Z,63.50
2022-08-18T07:38:13.832Z,62.50
2022-08-18T07:41:24.498Z,65.25
2022-08-18T07:44:20.133Z,68.25
2022-08-18T07:46:53.074Z,64.50
2022-08-18T07:49:25.211Z,66.25
2022-08-18T07:52:01.851Z,61.50
2022-08-18T07:54:49.449Z,65.25
2022-08-18T07:57:42.010Z,62.25
2022-08-18T08:00:35.459Z,62.50
2022-08-18T08:03:30.262Z,61.50
2022-08-18T08:06:02.875Z,61.00
2022-08-18T08:08:57.412Z,63.50
2022-08-18T08:11:35.652Z,64.00
2022-08-18T08:14:24.230Z,59.75
2022-08-18T08:17:03.450Z,59.25
2022-08-18T08:19:59.983Z,60.00
2022-08-18T08:23:08.852Z,59.25
2022-08-18T08:25:54.484Z,59.25
2022-08-18T08:28:43.189Z,59.00
2022-08-18T08:31:36.774Z,58.00
2022-08-18T08:34:13.275Z,55.25
2022-08-18T08:36:49.979Z,55.75
2022-08-18T08:39:47.431Z,54.50
2022-08-18T08:42:40.195Z,60.50
2022-08-18T08:45:42.618Z,54.75
2022-08-18T08:48:22.408Z,59.00
2022-08-18T08:51:21.027Z,51.75
2022-08-18T08:53:56.343Z,51.75
2022-08-18T08:56:31.830Z,53.75
2022-08-18T08:59:06.110Z,52.25
2022-08-18T09:01:35.997Z,53.25
2022-08-18T09:04:25.447Z,54.50
2022-08-18T09:07:09.499Z,53.25
2022-08-18T09:09:48.235Z,54.25
2022-08-18T09:12:35.801Z,48.50
2022-08-18T09:15:23.542Z,53.25
2022-08-18T09:17:52.967Z,53.75
2022-08-18T09:20:43.555Z,48.75
2022-08-18T09:23:22.136Z,48.25
2022-08-18T09:25:57.054Z,51.50
2022-08-18T09:28:30.140Z,51.75
2022-08-18T09:31:09.160Z,51.00
2022-08-18T09:33:45.134Z,48.50
2022-08-18T09:36:41.392Z,50.00
2022-08-18T09:39:54.513Z,49.00
2022-08-18T09:42:53.818Z,51.25
2022-08-18T09:52:37.571Z,48.50
2022-08-18T09:55:25.866Z,49.25
2022-08-18T09:58:17.327Z,45.25
2022-08-18T10:00:47.546Z,43.00
2022-08-18T10:03:31.288Z,49.75
2022-08-18T10:06:19.148Z,50.50
2022-08-18T10:09:36.812Z,49.00
2022-08-18T10:12:31.822Z,52.50
2022-08-18T10:18:21.493Z,49.25
2022-08-18T10:21:09.317Z,48.00
2022-08-18T10:27:01.853Z,48.00
2022-08-18T10:29:31.525Z,48.00
2022-08-18T10:32:01.164Z,48.50
2022-08-18T10:34:51.858Z,45.00
2022-08-18T10:37:26.011Z,47.00
2022-08-18T10:40:03.354Z,48.50
2022-08-18T10:42:37.928Z,48.25
2022-08-18T10:45:10.678Z,46.50
2022-08-18T10:47:40.644Z,53.50
2022-08-18T10:50:29.440Z,49.50
2022-08-18T10:53:40.965Z,48.00
2022-08-18T11:03:40.038Z,48.75
2022-08-18T11:12:55.516Z,49.50
2022-08-18T11:15:38.720Z,50.50
2022-08-18T11:18:43.130Z,48.50
2022-08-18T11:21:31.979Z,52.50
2022-08-18T11:24:06.285Z,52.50
2022-08-18T11:26:45.010Z,48.25
2022-08-18T11:29:33.767Z,49.00
2022-08-18T11:32:13.759Z,50.25
2022-08-18T11:34:53.247Z,47.75
2022-08-18T11:37:51.670Z,45.50
2022-08-18T11:41:01.976Z,44.00
2022-08-18T11:43:16.268Z,44.00
2022-08-18T11:45:54.100Z,44.75
2022-08-18T11:48:51.056Z,48.75
2022-08-18T11:51:27.369Z,45.50
2022-08-18T11:54:02.040Z,41.50
2022-08-18T11:56:37.763Z,42.00
2022-08-18T11:59:11.638Z,46.75
2022-08-18T12:02:04.042Z,48.00
2022-08-18T12:04:41.732Z,43.75
2022-08-18T12:07:28.433Z,42.25
2022-08-18T12:10:16.439Z,43.50
2022-08-18T12:12:53.967Z,41.50
2022-08-18T12:15:43.711Z,45.25
2022-08-18T12:21:24.478Z,44.25
2022-08-18T12:24:00.438Z,45.75
2022-08-18T12:26:38.735Z,43.25
2022-08-18T12:29:15.211Z,46.25
2022-08-18T12:31:59.142Z,44.50
2022-08-18T12:34:29.559Z,44.25
2022-08-18T12:37:57.823Z,44.00
2022-08-18T12:40:06.377Z,48.50
2022-08-18T12:42:36.999Z,46.50
2022-08-18T12:45:10.008Z,47.00
2022-08-18T12:47:42.751Z,45.00
2022-08-18T12:50:15.002Z,45.75
2022-08-18T12:52:45.409Z,46.00
2022-08-18T12:58:09.386Z,47.50
2022-08-18T13:00:42.127Z,47.25
2022-08-18T13:03:12.094Z,48.75
2022-08-18T13:05:41.654Z,52.00
2022-08-18T13:08:30.788Z,50.25
2022-08-18T13:11:04.267Z,45.75
2022-08-18T13:13:45.710Z,46.50
2022-08-18T13:16:38.613Z,47.75
2022-08-18T13:19:10.936Z,47.75
2022-08-18T13:21:45.082Z,46.25
2022-08-18T13:24:27.568Z,50.50
2022-08-18T13:26:57.824Z,51.75
2022-08-18T13:29:30.927Z,55.75
2022-08-18T13:32:00.938Z,52.50
2022-08-18T13:34:30.736Z,56.50
2022-08-18T13:37:01.791Z,51.50
2022-08-18T13:39:34.032Z,53.25
2022-08-18T13:42:21.798Z,54.75
2022-08-18T13:44:57.034Z,60.75
2022-08-18T13:47:30.829Z,55.00
2022-08-18T13:50:01.561Z,55.50
2022-08-18T13:52:44.579Z,57.75
2022-08-18T13:55:23.842Z,50.00
2022-08-18T13:58:02.712Z,56.25
2022-08-18T14:00:54.887Z,55.50
2022-08-18T14:03:42.778Z,57.75
2022-08-18T14:06:22.019Z,53.50
2022-08-18T14:08:54.922Z,53.25
2022-08-18T14:11:32.706Z,59.25
2022-08-18T14:14:09.978Z,55.00
2022-08-18T14:16:42.489Z,57.25
2022-08-18T14:19:33.629Z,63.75
2022-08-18T14:22:21.870Z,63.50
2022-08-18T14:25:16.215Z,68.75
2022-08-18T14:27:58.525Z,70.75
2022-08-18T14:30:34.859Z,67.75
2022-08-18T14:33:07.891Z,66.00
2022-08-18T14:36:06.553Z,66.50
2022-08-18T14:38:38.326Z,66.25
2022-08-18T14:41:10.279Z,64.00
2022-08-18T14:44:12.554Z,63.25
2022-08-18T14:46:41.061Z,66.50
2022-08-18T14:49:11.793Z,66.00
2022-08-18T14:51:52.707Z,63.25
2022-08-18T14:54:28.525Z,68.75
2022-08-18T14:57:06.728Z,69.25
2022-08-18T14:59:46.524Z,67.00
2022-08-18T15:02:16.310Z,68.75
2022-08-18T15:04:53.277Z,68.00
2022-08-18T15:07:26.399Z,66.50
2022-08-18T15:10:15.172Z,66.75
2022-08-18T15:12:49.459Z,68.00
2022-08-18T15:15:22.479Z,68.75
2022-08-18T15:17:54.418Z,69.00
2022-08-18T15:20:31.908Z,68.00
2022-08-18T15:23:22.599Z,65.00
2022-08-18T15:25:56.680Z,69.25
2022-08-18T15:28:29.947Z,70.25
2022-08-18T15:33:51.090Z,66.25
2022-08-18T15:36:28.776Z,69.00
2022-08-18T15:39:02.983Z,66.25
2022-08-18T15:41:43.958Z,68.50
2022-08-18T15:44:16.946Z,70.25
2022-08-18T15:46:53.293Z,65.25
2022-08-18T15:49:29.732Z,67.00
2022-08-18T15:52:11.922Z,71.75
2022-08-18T15:54:43.467Z,70.75
2022-08-18T15:57:35.290Z,68.00
2022-08-18T16:00:20.173Z,62.75
2022-08-18T16:02:59.272Z,66.25
2022-08-18T16:05:32.676Z,69.50
2022-08-18T16:08:22.561Z,66.50
2022-08-18T16:10:54.045Z,64.75
2022-08-18T16:13:27.696Z,61.50
2022-08-18T16:16:02.713Z,67.25
2022-08-18T16:18:36.703Z,66.25
2022-08-18T16:21:12.386Z,67.25
2022-08-18T16:23:43.934Z,63.00
2022-08-18T16:28:50.222Z,70.00
2022-08-18T16:31:27.562Z,67.00
2022-08-18T16:34:01.881Z,68.25
2022-08-18T16:36:35.785Z,62.75
2022-08-18T16:39:08.842Z,65.50
2022-08-18T16:41:39.243Z,67.50
2022-08-18T16:44:13.357Z,66.00
2022-08-18T16:46:47.359Z,65.75
2022-08-18T16:49:19.558Z,67.00
2022-08-18T16:51:54.269Z,69.75
2022-08-18T16:54:24.614Z,68.75
2022-08-18T16:56:54.274Z,69.00
2022-08-18T16:59:41.996Z,70.25
2022-08-18T17:02:29.796Z,70.75
2022-08-18T17:05:03.692Z,65.25
2022-08-18T17:07:35.249Z,63.50
2022-08-18T17:10:10.752Z,59.50
2022-08-18T17:12:44.173Z,59.00
2022-08-18T17:15:20.436Z,62.00
2022-08-18T17:17:50.753Z,62.25
2022-08-18T17:20:22.742Z,59.00
2022-08-18T17:22:57.488Z,61.50
2022-08-18T17:25:30.271Z,57.00
2022-08-18T17:28:03.315Z,57.75
2022-08-18T17:30:41.766Z,60.75
2022-08-18T17:33:14.427Z,56.25
2022-08-18T17:35:48.756Z,53.00
2022-08-18T17:38:37.589Z,54.50
2022-08-18T17:41:08.908Z,54.75
2022-08-18T17:46:30.126Z,54.50
2022-08-18T17:49:05.621Z,56.50
2022-08-18T17:51:55.117Z,53.25
2022-08-18T17:54:29.379Z,57.00
2022-08-18T17:57:06.829Z,54.50
2022-08-18T17:59:54.657Z,58.50
2022-08-18T18:02:29.652Z,57.25
2022-08-18T18:05:01.476Z,56.00
2022-08-18T18:07:31.254Z,55.75
2022-08-18T18:10:09.509Z,54.00
2022-08-18T18:12:40.732Z,53.00
2022-08-18T18:15:13.297Z,53.75
2022-08-18T18:17:44.432Z,57.25
2022-08-18T18:20:16.997Z,54.75
2022-08-18T18:22:47.371Z,53.75
2022-08-18T18:25:34.330Z,52.50
2022-08-18T18:28:04.596Z,53.25
2022-08-18T18:30:34.839Z,47.50
2022-08-18T18:33:17.097Z,48.00
2022-08-18T18:35:53.290Z,50.50
2022-08-18T18:38:34.526Z,50.25
2022-08-18T18:41:16.503Z,50.00
2022-08-18T18:43:48.245Z,45.75
2022-08-18T18:46:19.313Z,49.50
2022-08-18T18:48:52.529Z,49.50
2022-08-18T18:51:48.609Z,47.00
2022-08-18T18:54:36.787Z,51.00
2022-08-18T18:57:12.194Z,43.75
2022-08-18T18:59:42.562Z,50.00
2022-08-18T19:02:21.193Z,44.25
2022-08-18T19:05:06.844Z,46.50
2022-08-18T19:07:56.111Z,50.25
2022-08-18T19:10:31.775Z,50.50
2022-08-18T19:13:12.800Z,47.75
2022-08-18T19:16:06.125Z,46.00
2022-08-18T19:18:57.974Z,46.25
2022-08-18T19:22:04.396Z,44.50
2022-08-18T19:24:26.765Z,46.50
2022-08-18T19:26:59.675Z,47.00
2022-08-18T19:29:32.907Z,48.50
2022-08-18T19:32:05.294Z,45.75
2022-08-18T19:34:37.703Z,50.25
2022-08-18T19:37:27.382Z,46.00
2022-08-18T19:40:03.691Z,48.50
2022-08-18T19:42:42.528Z,47.50
2022-08-18T19:45:20.543Z,42.50
2022-08-18T19:47:54.598Z,49.00
2022-08-18T19:50:24.095Z,43.75
2022-08-18T19:52:56.493Z,47.50
2022-08-18T19:55:32.585Z,42.25
2022-08-18T19:58:02.679Z,45.25
2022-08-18T20:00:45.170Z,43.00
2022-08-18T20:03:17.289Z,43.00
2022-08-18T20:05:49.639Z,40.50
2022-08-18T20:08:53.952Z,42.50
2022-08-18T20:11:41.708Z,41.75
2022-08-18T20:14:13.947Z,42.50
2022-08-18T20:17:05.260Z,46.50
2022-08-18T20:19:52.890Z,38.25
2022-08-18T20:22:25.731Z,43.75
2022-08-18T20:25:05.886Z,45.00
2022-08-18T20:27:37.622Z,42.00
2022-08-18T20:30:07.471Z,43.00
2022-08-18T20:32:37.072Z,44.75
2022-08-18T20:35:18.909Z,46.50
2022-08-18T20:37:48.230Z,41.50
2022-08-18T20:40:35.705Z,45.00
2022-08-18T20:43:07.697Z,40.00
2022-08-18T20:45:42.533Z,45.25
2022-08-18T20:48:15.369Z,40.25
2022-08-18T20:50:58.768Z,42.75
2022-08-18T20:53:49.895Z,38.75
2022-08-18T20:56:44.012Z,40.50
2022-08-18T20:59:22.304Z,40.50
2022-08-18T21:02:05.303Z,41.50
2022-08-18T21:04:54.578Z,42.00
2022-08-18T21:07:36.178Z,46.00
2022-08-18T21:10:15.876Z,43.75
2022-08-18T21:12:56.480Z,49.75
2022-08-18T21:15:36.767Z,46.25
2022-08-18T21:18:08.629Z,44.25
2022-08-18T21:20:38.262Z,42.25
2022-08-18T21:23:10.914Z,42.75
2022-08-18T21:26:09.784Z,42.00
2022-08-18T21:28:40.517Z,45.50
2022-08-18T21:31:29.279Z,44.50
2022-08-18T21:34:13.932Z,45.50
2022-08-18T21:36:56.636Z,42.50
2022-08-18T21:39:26.551Z,43.50
2022-08-18T21:41:57.315Z,42.25
2022-08-18T21:44:26.688Z,43.75
2022-08-18T21:47:07.488Z,40.00
2022-08-18T21:49:37.221Z,44.00
2022-08-18T21:52:06.530Z,40.25
2022-08-18T21:54:36.113Z,39.50
2022-08-18T21:57:39.050Z,40.75
2022-08-18T22:00:21.770Z,40.25
2022-08-18T22:02:54.743Z,39.00
2022-08-18T22:05:58.347Z,37.75
2022-08-18T22:08:25.661Z,33.00
2022-08-18T22:11:59.761Z,35.00
2022-08-18T22:14:20.875Z,30.75
2022-08-18T22:16:50.184Z,31.25
2022-08-18T22:19:22.609Z,32.75
2022-08-18T22:22:28.484Z,28.00
2022-08-18T22:25:00.159Z,26.25
2022-08-18T22:27:30.517Z,19.00
2022-08-18T22:30:05.817Z,17.75
2022-08-18T22:32:37.913Z,18.75
2022-08-18T22:35:09.166Z,18.00
2022-08-18T22:37:41.729Z,19.75
2022-08-18T22:40:12.741Z,20.50
2022-08-18T22:42:42.519Z,15.50
2022-08-18T22:45:16.839Z,14.50
2022-08-18T22:47:46.126Z,16.50
2022-08-18T22:50:15.857Z,17.25
2022-08-18T22:52:47.695Z,14.00
2022-08-18T22:55:23.746Z,15.00
2022-08-18T22:57:56.385Z,16.00
2022-08-18T23:00:27.423Z,13.50
2022-08-18T23:02:57.117Z,13.00
2022-08-18T23:05:26.586Z,14.25
2022-08-18T23:07:55.948Z,15.50
2022-08-18T23:10:25.259Z,15.75
2022-08-18T23:12:54.686Z,14.00
2022-08-18T23:15:42.744Z,14.50
2022-08-18T23:18:12.668Z,13.00
2022-08-18T23:20:42.002Z,14.75
2022-08-18T23:23:11.328Z,17.25
2022-08-18T23:25:41.255Z,13.75
2022-08-18T23:28:11.789Z,14.00
2022-08-18T23:30:42.052Z,14.25
2022-08-18T23:33:12.099Z,19.33
2022-08-18T23:35:41.723Z,12.75
2022-08-18T23:38:12.114Z,13.75
2022-08-18T23:40:45.267Z,18.75
2022-08-18T23:43:15.469Z,14.00
2022-08-18T23:45:48.475Z,16.00
2022-08-18T23:48:21.355Z,17.25
2022-08-18T23:50:51.484Z,16.50
2022-08-18T23:53:21.207Z,13.25
2022-08-18T23:55:50.477Z,13.25
2022-08-18T23:58:19.772Z,14.50
